Port Erroll, United Kingdom
Current Conditions -  °F | °C
As of 12:20 PM on Thursday 25 Dec 2014 (Local Time) from EGPD Reporting Station
Clear Clear  
Wind Chill:   Ceiling: Unl
Heat Index:   Visibility: 6mi
Dew Point:   Wind: 8mph
Humidity: 87%   Direction: 290°WNW
Pressure: 30.3"   Gusts: NA
Location:  57.42°N, 1.83°W
Report Text: EGPD 251220Z 29007KT CAVOK 03/01 Q1026 NOSIG
Loading
Personal Weather Stations






























Interactive Weather Map New forecast layout! Learn more

10-Day Weather Forecast

Advertisements
Track Severe Weather on mobile